Pagrindinis puslapis
METAR-TAF:

METAR-TAF

Oro uostai :

Boryspilio tarptautinis oro uostas

Boryspilis, Ukraina

platuma: 50-20N, ilguma: 030-58E, Aukštis: 121 m

Dabartinis oras

Ataskaita buvo paskelbta 17 minutes, ne 08:30 UTC
Vėjas 2 kt nuo kintamojo kryptimis
Temperatūra 19°C
Drėgmė 49%
Slėgis 1020 hPa
Matomumas 10 km arba daugiau
nėra debesų žemiau 1500 m ir nėra kamuolinių lietaus debesų

METAR: UKBB 180830Z VRB01MPS CAVOK 19/08 Q1020 R88/CLRD// NOSIG

Laikas: 11:47 (08:47 UTC)

Prognozė

Ataskaita buvo paskelbta 2 valandos ir 14 minutes, ne 06:33 UTC
Prognozė galioja nuo 18 metu 06 UTC su 19 metu 06 UTC
Vėjas 6 kt iš Šiaurės/Šiaurės Rytų su gūsio iki 16 kt
Matomumas 10 km arba daugiau
Išsisklaidę debesys ne aukštis 2500 ft
Laikinai
nuo 18 metu 06 UTC su 18 metu 08 UTC
Matomumas: 2000 m
Su prošvaistėmis ne aukštis 500 ft
rūkana
Laikinai
nuo 18 metu 21 UTC su 19 metu 06 UTC
Matomumas: 1000 m
Išsisklaidę debesys ne aukštis 300 ft
rūkana

TAF: UKBB 180633Z 1806/1906 02003G08MPS 9999 SCT025 TEMPO 1806/1808 2000 BR BKN005 TEMPO 1821/1906 1000 BR SCT003

Orai ataskaitas ir orų prognozės (METAR, TAF).

turimą stotys yra geltonos ir raudonos taškus žemėlapyje.

Perkelti pele per norėdami pamatyti stoties vardą.

Tada spustelėkite, norėdami matyti oro stebėjimo ir prognozės.

Norėdami pakeisti žemėlapį: spustelėkite ant žalios mygtukų su juodo kryžiaus žemyn,; žalią mygtuką su brūkšneliu, jei norite nutolinti; arba žalių rodyklių gretimoms žemėlapius.


METAR-TAF: